createdAt,value
2022-12-28T00:02:15.317Z,2.30
2022-12-28T00:04:43.445Z,2.27
2022-12-28T00:07:11.643Z,2.27
2022-12-28T00:09:39.810Z,2.63
2022-12-28T00:12:09.389Z,2.07
2022-12-28T00:14:37.598Z,2.70
2022-12-28T00:17:05.730Z,3.17
2022-12-28T00:19:33.783Z,2.60
2022-12-28T00:22:02.017Z,2.70
2022-12-28T00:24:30.051Z,2.23
2022-12-28T00:26:58.142Z,2.60
2022-12-28T00:29:27.671Z,2.40
2022-12-28T00:31:56.313Z,2.53
2022-12-28T00:34:25.653Z,2.20
2022-12-28T00:37:08.386Z,2.33
2022-12-28T00:39:41.784Z,2.70
2022-12-28T00:42:10.372Z,2.40
2022-12-28T00:44:40.512Z,2.97
2022-12-28T00:47:08.997Z,2.20
2022-12-28T00:49:37.233Z,2.53
2022-12-28T00:52:06.040Z,2.23
2022-12-28T00:54:34.349Z,2.43
2022-12-28T00:57:04.077Z,2.10
2022-12-28T00:59:32.589Z,2.23
2022-12-28T01:02:02.450Z,2.90
2022-12-28T01:04:30.630Z,2.67
2022-12-28T01:06:58.708Z,2.67
2022-12-28T01:09:26.756Z,2.60
2022-12-28T01:11:56.079Z,2.10
2022-12-28T01:14:24.414Z,2.70
2022-12-28T01:16:52.496Z,2.10
2022-12-28T01:19:23.997Z,2.00
2022-12-28T01:21:53.211Z,2.70
2022-12-28T01:24:21.548Z,1.77
2022-12-28T01:26:49.633Z,2.17
2022-12-28T01:29:18.964Z,1.97
2022-12-28T01:31:47.030Z,2.10
2022-12-28T01:34:15.209Z,2.37
2022-12-28T01:36:44.621Z,2.00
2022-12-28T01:39:12.667Z,1.87
2022-12-28T01:41:43.580Z,1.90
2022-12-28T01:44:44.168Z,2.27
2022-12-28T01:47:20.654Z,2.10
2022-12-28T01:49:58.244Z,1.90
2022-12-28T01:52:35.601Z,2.67
2022-12-28T01:55:10.406Z,2.10
2022-12-28T01:57:48.152Z,2.10
2022-12-28T02:00:18.585Z,1.90
2022-12-28T02:02:53.432Z,1.83
2022-12-28T02:05:24.791Z,1.87
2022-12-28T02:08:00.834Z,1.63
2022-12-28T02:10:41.029Z,1.60
2022-12-28T02:15:45.466Z,1.57
2022-12-28T02:18:15.385Z,1.83
2022-12-28T02:21:08.314Z,1.80
2022-12-28T02:24:07.880Z,1.50
2022-12-28T02:26:55.705Z,2.03
2022-12-28T02:29:48.034Z,1.53
2022-12-28T02:32:55.621Z,1.60
2022-12-28T02:35:35.335Z,1.47
2022-12-28T02:38:11.573Z,1.27
2022-12-28T02:40:45.920Z,1.30
2022-12-28T02:43:14.738Z,1.07
2022-12-28T02:46:03.557Z,0.90
2022-12-28T02:48:59.100Z,1.10
2022-12-28T02:52:03.384Z,1.07
2022-12-28T02:55:15.709Z,1.00
2022-12-28T02:58:05.427Z,1.63
2022-12-28T03:00:50.088Z,1.20
2022-12-28T03:03:31.547Z,1.10
2022-12-28T03:06:33.037Z,1.30
2022-12-28T03:09:10.766Z,1.20
2022-12-28T03:11:45.275Z,0.90
2022-12-28T03:14:19.580Z,1.10
2022-12-28T03:17:11.693Z,1.00
2022-12-28T03:20:04.869Z,1.37
2022-12-28T03:22:55.517Z,1.10
2022-12-28T03:25:49.654Z,1.13
2022-12-28T03:28:43.995Z,1.27
2022-12-28T03:31:17.314Z,1.03
2022-12-28T03:34:06.522Z,0.90
2022-12-28T03:36:49.026Z,0.80
2022-12-28T03:39:31.360Z,1.03
2022-12-28T03:42:23.425Z,1.37
2022-12-28T03:45:00.176Z,0.80
2022-12-28T03:47:32.108Z,0.93
2022-12-28T03:50:01.888Z,0.97
2022-12-28T03:52:30.263Z,0.60
2022-12-28T03:54:58.557Z,0.80
2022-12-28T03:57:26.628Z,0.40
2022-12-28T03:59:55.198Z,1.70
2022-12-28T04:02:24.451Z,0.57
2022-12-28T04:04:53.098Z,0.63
2022-12-28T04:07:22.500Z,1.00
2022-12-28T04:09:50.487Z,0.80
2022-12-28T04:12:18.533Z,0.93
2022-12-28T04:15:13.390Z,0.60
2022-12-28T04:17:41.417Z,0.50
2022-12-28T04:20:12.610Z,1.03
2022-12-28T04:22:42.088Z,0.80
2022-12-28T04:25:10.664Z,0.60
2022-12-28T04:27:38.754Z,0.70
2022-12-28T04:30:14.478Z,0.50
2022-12-28T04:32:42.590Z,0.50
2022-12-28T04:35:10.893Z,0.67
2022-12-28T04:37:48.189Z,0.80
2022-12-28T04:40:16.475Z,0.80
2022-12-28T04:42:44.486Z,0.73
2022-12-28T04:45:15.789Z,0.67
2022-12-28T04:47:48.058Z,0.70
2022-12-28T04:50:16.059Z,0.60
2022-12-28T04:52:44.875Z,0.60
2022-12-28T04:55:32.925Z,0.60
2022-12-28T04:58:01.984Z,0.70
2022-12-28T05:00:30.216Z,0.80
2022-12-28T05:02:59.784Z,0.40
2022-12-28T05:05:28.850Z,0.43
2022-12-28T05:07:57.148Z,0.57
2022-12-28T05:10:26.477Z,0.67
2022-12-28T05:12:55.755Z,0.43
2022-12-28T05:15:23.951Z,0.20
2022-12-28T05:17:52.626Z,0.80
2022-12-28T05:20:20.648Z,0.53
2022-12-28T05:22:48.709Z,0.63
2022-12-28T05:25:17.037Z,0.47
2022-12-28T05:27:46.372Z,0.60
2022-12-28T05:30:14.508Z,0.50
2022-12-28T05:32:42.520Z,0.53
2022-12-28T05:35:11.095Z,0.90
2022-12-28T05:37:39.164Z,0.80
2022-12-28T05:40:08.994Z,0.50
2022-12-28T05:42:37.489Z,0.53
2022-12-28T05:45:08.590Z,0.70
2022-12-28T05:47:36.649Z,0.70
2022-12-28T05:50:05.311Z,0.60
2022-12-28T05:52:33.346Z,0.80
2022-12-28T05:55:01.309Z,0.93
2022-12-28T05:57:29.355Z,0.90
2022-12-28T05:59:57.403Z,1.43
2022-12-28T06:02:27.700Z,1.40
2022-12-28T06:04:56.072Z,1.00
2022-12-28T06:07:24.154Z,0.60
2022-12-28T06:09:52.228Z,0.70
2022-12-28T06:12:20.277Z,0.90
2022-12-28T06:14:48.396Z,0.73
2022-12-28T06:17:16.458Z,1.20
2022-12-28T06:19:45.807Z,0.70
2022-12-28T06:22:13.804Z,0.70
2022-12-28T06:24:41.916Z,0.83
2022-12-28T06:27:09.887Z,0.70
2022-12-28T06:29:37.950Z,0.70
2022-12-28T06:32:06.259Z,0.80
2022-12-28T06:34:34.282Z,1.03
2022-12-28T06:37:04.195Z,0.90
2022-12-28T06:39:32.180Z,1.23
2022-12-28T06:42:00.212Z,1.00
2022-12-28T06:44:28.256Z,0.97
2022-12-28T06:46:56.267Z,1.00
2022-12-28T06:49:24.287Z,1.27
2022-12-28T06:51:52.484Z,1.20
2022-12-28T06:54:21.834Z,1.23
2022-12-28T06:56:49.813Z,1.17
2022-12-28T06:59:17.868Z,1.17
2022-12-28T07:01:46.070Z,1.60
2022-12-28T07:04:14.526Z,1.03
2022-12-28T07:06:44.742Z,1.50
2022-12-28T07:09:15.972Z,0.80
2022-12-28T07:11:46.320Z,1.13
2022-12-28T07:14:14.428Z,1.20
2022-12-28T07:16:42.908Z,1.00
2022-12-28T07:19:11.405Z,0.90
2022-12-28T07:21:40.779Z,0.97
2022-12-28T07:24:10.175Z,1.00
2022-12-28T07:26:39.748Z,1.13
2022-12-28T07:29:10.495Z,1.10
2022-12-28T07:31:45.243Z,1.00
2022-12-28T07:34:15.090Z,0.80
2022-12-28T07:36:43.666Z,1.60
2022-12-28T07:39:11.768Z,1.10
2022-12-28T07:41:39.789Z,1.20
2022-12-28T07:44:09.270Z,1.00
2022-12-28T07:46:39.030Z,1.40
2022-12-28T07:49:07.690Z,1.10
2022-12-28T07:51:38.368Z,1.00
2022-12-28T07:54:07.618Z,1.30
2022-12-28T07:59:06.444Z,1.07
2022-12-28T08:01:37.697Z,1.47
2022-12-28T08:04:09.001Z,1.37
2022-12-28T08:06:40.272Z,1.83
2022-12-28T08:09:10.641Z,1.47
2022-12-28T08:11:42.029Z,1.67
2022-12-28T08:14:11.408Z,2.10
2022-12-28T08:16:42.946Z,1.93
2022-12-28T08:19:12.042Z,1.60
2022-12-28T08:21:44.526Z,1.60
2022-12-28T08:24:16.460Z,1.77
2022-12-28T08:26:45.404Z,1.87
2022-12-28T08:29:17.083Z,1.50
2022-12-28T08:31:47.326Z,1.67
2022-12-28T08:34:17.937Z,2.00
2022-12-28T08:36:46.142Z,1.70
2022-12-28T08:39:14.672Z,1.53
2022-12-28T08:41:43.052Z,1.73
2022-12-28T08:44:11.026Z,1.80
2022-12-28T08:46:40.458Z,1.80
2022-12-28T08:49:09.970Z,1.97
2022-12-28T08:51:41.349Z,2.20
2022-12-28T08:54:34.459Z,2.00
2022-12-28T08:57:02.483Z,1.80
2022-12-28T08:59:30.510Z,1.87
2022-12-28T09:01:58.564Z,2.23
2022-12-28T09:04:27.955Z,2.13
2022-12-28T09:06:56.012Z,1.87
2022-12-28T09:09:24.031Z,2.37
2022-12-28T09:11:52.010Z,1.77
2022-12-28T09:14:23.730Z,1.40
2022-12-28T09:16:53.847Z,1.93
2022-12-28T09:19:22.804Z,2.17
2022-12-28T09:21:53.729Z,2.00
2022-12-28T09:24:22.092Z,1.80
2022-12-28T09:26:52.452Z,1.50
2022-12-28T09:29:21.831Z,1.63
2022-12-28T09:31:50.026Z,2.00
2022-12-28T09:37:09.003Z,2.10
2022-12-28T09:39:37.511Z,1.97
2022-12-28T09:42:13.244Z,1.93
2022-12-28T09:45:00.525Z,2.00
2022-12-28T09:47:36.243Z,1.70
2022-12-28T09:50:28.511Z,1.53
2022-12-28T09:53:17.444Z,1.60
2022-12-28T09:55:55.781Z,3.30
2022-12-28T09:58:24.172Z,1.73
2022-12-28T10:00:56.326Z,2.53
2022-12-28T10:03:27.910Z,2.80
2022-12-28T10:05:58.377Z,3.57
2022-12-28T10:08:29.661Z,2.50
2022-12-28T10:11:03.219Z,2.70
2022-12-28T10:13:54.760Z,2.50
2022-12-28T10:16:26.639Z,3.50
2022-12-28T10:18:54.997Z,2.13
2022-12-28T10:21:32.378Z,1.40
2022-12-28T10:24:31.502Z,1.47
2022-12-28T10:26:56.666Z,1.37
2022-12-28T10:29:26.821Z,1.60
2022-12-28T10:32:03.252Z,1.30
2022-12-28T10:34:34.211Z,1.20
2022-12-28T10:37:14.636Z,1.00
2022-12-28T10:39:54.283Z,1.37
2022-12-28T10:42:27.186Z,1.30
2022-12-28T10:45:02.789Z,1.17
2022-12-28T10:47:35.904Z,1.60
2022-12-28T10:52:58.783Z,1.40
2022-12-28T10:55:32.019Z,1.60
2022-12-28T10:58:30.278Z,1.30
2022-12-28T11:01:04.822Z,1.43
2022-12-28T11:03:36.775Z,1.20
2022-12-28T11:06:14.606Z,1.20
2022-12-28T11:08:44.900Z,1.70
2022-12-28T11:11:23.098Z,1.30
2022-12-28T11:13:57.323Z,1.33
2022-12-28T11:16:25.400Z,1.70
2022-12-28T11:18:54.132Z,1.20
2022-12-28T11:21:23.217Z,1.20
2022-12-28T11:23:53.128Z,1.53
2022-12-28T11:26:22.893Z,1.30
2022-12-28T11:28:52.998Z,1.00
2022-12-28T11:31:28.629Z,1.13
2022-12-28T11:34:02.406Z,0.90
2022-12-28T11:36:33.511Z,1.57
2022-12-28T11:39:47.620Z,1.50
2022-12-28T11:42:56.110Z,1.13
2022-12-28T11:45:57.313Z,1.37
2022-12-28T11:48:49.559Z,0.90
2022-12-28T11:51:20.051Z,1.47
2022-12-28T11:54:00.311Z,1.20
2022-12-28T11:56:59.577Z,0.97
2022-12-28T11:59:29.330Z,1.30
2022-12-28T12:01:59.896Z,1.13
2022-12-28T12:04:36.437Z,1.40
2022-12-28T12:07:48.286Z,1.27
2022-12-28T12:10:38.918Z,1.30
2022-12-28T12:13:48.764Z,1.30
2022-12-28T12:16:32.050Z,1.17
2022-12-28T12:19:00.975Z,1.20
2022-12-28T12:21:37.509Z,1.27
2022-12-28T12:24:33.485Z,1.30
2022-12-28T12:27:13.604Z,1.60
2022-12-28T12:29:48.628Z,1.30
2022-12-28T12:32:25.012Z,1.30
2022-12-28T12:34:57.176Z,1.40
2022-12-28T12:37:43.753Z,1.10
2022-12-28T12:40:46.953Z,1.23
2022-12-28T12:43:41.170Z,1.33
2022-12-28T12:47:05.900Z,1.30
2022-12-28T12:50:14.573Z,1.57
2022-12-28T12:52:54.264Z,1.10
2022-12-28T12:55:44.844Z,1.40
2022-12-28T12:58:23.427Z,1.33
2022-12-28T13:01:20.304Z,1.47
2022-12-28T13:03:50.895Z,1.43
2022-12-28T13:06:24.294Z,1.40
2022-12-28T13:08:59.069Z,1.40
2022-12-28T13:11:31.925Z,1.47
2022-12-28T13:13:59.999Z,1.90
2022-12-28T13:16:32.516Z,1.50
2022-12-28T13:19:04.538Z,1.40
2022-12-28T13:21:43.199Z,1.37
2022-12-28T13:24:22.112Z,1.57
2022-12-28T13:26:50.771Z,1.67
2022-12-28T13:29:21.986Z,1.50
2022-12-28T13:31:52.338Z,1.20
2022-12-28T13:34:25.356Z,1.60
2022-12-28T13:36:56.762Z,1.70
2022-12-28T13:39:26.521Z,1.20
2022-12-28T13:41:57.995Z,1.67
2022-12-28T13:44:43.295Z,1.77
2022-12-28T13:47:24.621Z,1.57
2022-12-28T13:49:59.934Z,1.57
2022-12-28T13:52:35.427Z,1.30
2022-12-28T13:55:32.471Z,1.20
2022-12-28T13:58:05.164Z,1.37
2022-12-28T14:00:34.952Z,1.30
2022-12-28T14:03:07.402Z,1.53
2022-12-28T14:05:37.100Z,1.10
2022-12-28T14:08:07.845Z,1.30
2022-12-28T14:10:36.773Z,1.43
2022-12-28T14:13:05.951Z,1.40
2022-12-28T14:15:41.106Z,1.27
2022-12-28T14:18:10.928Z,1.67
2022-12-28T14:20:49.663Z,1.50
2022-12-28T14:23:23.192Z,1.30
2022-12-28T14:25:52.764Z,1.57
2022-12-28T14:28:27.760Z,1.60
2022-12-28T14:30:57.513Z,1.33
2022-12-28T14:33:28.909Z,1.50
2022-12-28T14:36:01.988Z,1.50
2022-12-28T14:38:35.419Z,1.20
2022-12-28T14:41:05.183Z,1.40
2022-12-28T14:43:37.214Z,1.57
2022-12-28T14:46:17.581Z,1.70
2022-12-28T14:48:46.212Z,1.60
2022-12-28T14:51:31.623Z,1.27
2022-12-28T14:54:20.654Z,1.20
2022-12-28T14:56:54.673Z,1.77
2022-12-28T14:59:30.291Z,1.50
2022-12-28T15:01:58.707Z,1.30
2022-12-28T15:04:35.783Z,1.30
2022-12-28T15:07:06.813Z,1.33
2022-12-28T15:09:35.275Z,1.20
2022-12-28T15:12:14.683Z,1.13
2022-12-28T15:14:44.095Z,1.47
2022-12-28T15:17:12.127Z,1.60
2022-12-28T15:19:43.061Z,1.70
2022-12-28T15:22:13.417Z,2.20
2022-12-28T15:24:45.341Z,2.93
2022-12-28T15:27:13.752Z,2.17
2022-12-28T15:32:31.110Z,1.70
2022-12-28T15:34:59.119Z,1.33
2022-12-28T15:37:28.466Z,1.33
2022-12-28T15:39:56.530Z,1.00
2022-12-28T15:42:24.508Z,1.30
2022-12-28T15:44:53.765Z,1.33
2022-12-28T15:47:23.191Z,1.80
2022-12-28T15:49:51.196Z,2.53
2022-12-28T15:52:19.228Z,2.67
2022-12-28T15:54:48.630Z,4.03
2022-12-28T15:57:16.793Z,3.20
2022-12-28T15:59:44.787Z,3.50
2022-12-28T16:02:13.454Z,2.13
2022-12-28T16:04:42.068Z,2.50
2022-12-28T16:07:10.208Z,2.67
2022-12-28T16:09:38.397Z,1.57
2022-12-28T16:12:08.158Z,1.73
2022-12-28T16:14:36.180Z,3.00
2022-12-28T16:17:29.093Z,1.73
2022-12-28T16:19:57.249Z,2.40
2022-12-28T16:22:25.288Z,1.70
2022-12-28T16:24:53.309Z,1.53
2022-12-28T16:27:22.683Z,1.43
2022-12-28T16:29:55.335Z,1.37
2022-12-28T16:32:28.028Z,1.93
2022-12-28T16:34:56.094Z,1.70
2022-12-28T16:37:24.306Z,1.73
2022-12-28T16:39:52.329Z,2.20
2022-12-28T16:42:21.651Z,1.57
2022-12-28T16:44:50.774Z,1.50
2022-12-28T16:47:18.836Z,2.40
2022-12-28T16:49:46.849Z,1.57
2022-12-28T16:52:14.913Z,1.87
2022-12-28T16:54:42.912Z,2.33
2022-12-28T16:57:11.173Z,2.10
2022-12-28T16:59:40.527Z,2.03
2022-12-28T17:02:14.768Z,1.87
2022-12-28T17:04:44.235Z,1.70
2022-12-28T17:07:12.226Z,1.20
2022-12-28T17:09:45.343Z,1.57
2022-12-28T17:12:17.157Z,1.80
2022-12-28T17:14:46.538Z,2.10
2022-12-28T17:17:14.536Z,1.90
2022-12-28T17:19:42.559Z,2.00
2022-12-28T17:22:10.772Z,1.67
2022-12-28T17:24:41.150Z,1.93
2022-12-28T17:27:14.193Z,2.63
2022-12-28T17:29:46.817Z,2.23
2022-12-28T17:32:14.933Z,1.60
2022-12-28T17:34:43.168Z,1.43
2022-12-28T17:37:11.238Z,1.50
2022-12-28T17:39:40.634Z,1.40
2022-12-28T17:42:09.271Z,1.87
2022-12-28T17:44:37.493Z,1.80
2022-12-28T17:47:06.863Z,1.83
2022-12-28T17:49:35.205Z,2.53
2022-12-28T17:52:03.400Z,1.90
2022-12-28T17:54:31.673Z,2.57
2022-12-28T17:57:00.161Z,1.73
2022-12-28T17:59:28.349Z,1.60
2022-12-28T18:01:57.303Z,1.67
2022-12-28T18:04:26.993Z,1.70
2022-12-28T18:06:55.021Z,2.43
2022-12-28T18:09:27.633Z,1.73
2022-12-28T18:11:56.166Z,1.50
2022-12-28T18:14:24.371Z,1.60
2022-12-28T18:16:52.492Z,1.30
2022-12-28T18:19:21.096Z,1.50
2022-12-28T18:21:50.423Z,1.50
2022-12-28T18:24:20.775Z,1.57
2022-12-28T18:26:49.370Z,1.30
2022-12-28T18:29:17.438Z,1.60
2022-12-28T18:31:45.528Z,1.23
2022-12-28T18:34:13.678Z,1.53
2022-12-28T18:36:41.687Z,1.47
2022-12-28T18:39:11.077Z,1.60
2022-12-28T18:41:39.067Z,1.80
2022-12-28T18:44:07.805Z,2.10
2022-12-28T18:46:35.977Z,2.20
2022-12-28T18:49:04.348Z,2.00
2022-12-28T18:51:32.356Z,2.23
2022-12-28T18:54:00.526Z,1.90
2022-12-28T18:56:29.886Z,2.10
2022-12-28T18:58:59.269Z,1.67
2022-12-28T19:04:18.720Z,1.97
2022-12-28T19:06:47.460Z,2.07
2022-12-28T19:09:15.825Z,1.57
2022-12-28T19:11:45.432Z,2.10
2022-12-28T19:14:15.779Z,1.93
2022-12-28T19:16:44.955Z,2.47
2022-12-28T19:19:13.102Z,2.73
2022-12-28T19:21:42.933Z,2.70
2022-12-28T19:24:15.236Z,1.63
2022-12-28T19:26:45.382Z,2.00
2022-12-28T19:29:15.426Z,1.60
2022-12-28T19:31:43.577Z,1.73
2022-12-28T19:34:11.633Z,1.80
2022-12-28T19:36:41.034Z,1.90
2022-12-28T19:39:34.014Z,2.00
2022-12-28T19:42:28.092Z,1.60
2022-12-28T19:44:56.117Z,1.93
2022-12-28T19:47:26.303Z,2.17
2022-12-28T19:49:54.478Z,2.93
2022-12-28T19:52:22.536Z,2.27
2022-12-28T19:54:50.691Z,3.00
2022-12-28T19:57:22.429Z,2.87
2022-12-28T19:59:50.578Z,3.00
2022-12-28T20:02:18.844Z,2.23
2022-12-28T20:04:46.990Z,2.00
2022-12-28T20:07:15.131Z,1.67
2022-12-28T20:09:43.492Z,1.80
2022-12-28T20:12:12.182Z,1.67
2022-12-28T20:14:41.513Z,1.77
2022-12-28T20:17:09.519Z,1.83
2022-12-28T20:19:37.786Z,1.73
2022-12-28T20:22:05.958Z,2.23
2022-12-28T20:24:35.816Z,1.90
2022-12-28T20:27:03.863Z,1.80
2022-12-28T20:29:33.336Z,1.80
2022-12-28T20:32:02.788Z,1.40
2022-12-28T20:34:30.921Z,1.90
2022-12-28T20:36:58.915Z,1.70
2022-12-28T20:39:26.928Z,1.43
2022-12-28T20:42:12.379Z,1.60
2022-12-28T20:44:40.367Z,1.80
2022-12-28T20:47:10.016Z,1.60
2022-12-28T20:49:38.222Z,1.40
2022-12-28T20:52:06.398Z,1.47
2022-12-28T20:54:34.453Z,1.70
2022-12-28T20:57:02.454Z,1.37
2022-12-28T20:59:30.632Z,1.47
2022-12-28T21:01:58.791Z,1.57
2022-12-28T21:04:28.248Z,1.60
2022-12-28T21:06:57.402Z,1.73
2022-12-28T21:09:25.433Z,1.63
2022-12-28T21:11:53.499Z,2.50
2022-12-28T21:14:21.769Z,1.50
2022-12-28T21:16:49.907Z,1.70
2022-12-28T21:19:17.960Z,1.80
2022-12-28T21:21:49.276Z,1.60
2022-12-28T21:24:17.423Z,1.50
2022-12-28T21:26:45.505Z,1.57
2022-12-28T21:29:13.553Z,1.67
2022-12-28T21:31:41.619Z,1.50
2022-12-28T21:34:09.715Z,1.50
2022-12-28T21:36:37.922Z,1.53
2022-12-28T21:39:07.314Z,1.23
2022-12-28T21:41:50.997Z,1.50
2022-12-28T21:44:23.203Z,1.70
2022-12-28T21:46:52.640Z,1.60
2022-12-28T21:49:21.799Z,1.60
2022-12-28T21:51:50.170Z,1.43
2022-12-28T21:54:22.073Z,1.63
2022-12-28T21:56:54.121Z,1.80
2022-12-28T21:59:24.148Z,1.30
2022-12-28T22:02:10.620Z,1.80
2022-12-28T22:05:02.144Z,1.40
2022-12-28T22:07:32.195Z,1.40
2022-12-28T22:10:21.306Z,1.70
2022-12-28T22:12:49.337Z,1.50
2022-12-28T22:15:40.209Z,1.60
2022-12-28T22:18:37.019Z,1.37
2022-12-28T22:21:05.912Z,1.50
2022-12-28T22:23:35.090Z,1.43
2022-12-28T22:26:04.802Z,1.73
2022-12-28T22:28:32.843Z,1.27
2022-12-28T22:31:05.386Z,1.90
2022-12-28T22:33:33.513Z,1.20
2022-12-28T22:36:10.747Z,1.60
2022-12-28T22:38:38.863Z,1.57
2022-12-28T22:41:08.837Z,1.33
2022-12-28T22:43:36.961Z,1.30
2022-12-28T22:46:07.458Z,1.37
2022-12-28T22:48:35.767Z,1.37
2022-12-28T22:51:05.564Z,1.40
2022-12-28T22:53:35.354Z,1.97
2022-12-28T22:56:06.631Z,1.43
2022-12-28T22:58:36.058Z,1.27
2022-12-28T23:01:07.307Z,1.40
2022-12-28T23:03:35.767Z,1.43
2022-12-28T23:06:03.881Z,1.67
2022-12-28T23:08:31.894Z,1.80
2022-12-28T23:11:02.555Z,1.30
2022-12-28T23:13:33.461Z,1.40
2022-12-28T23:16:04.669Z,1.33
2022-12-28T23:18:52.756Z,1.33
2022-12-28T23:21:41.729Z,1.30
2022-12-28T23:24:30.854Z,1.40
2022-12-28T23:27:23.517Z,1.27
2022-12-28T23:29:51.952Z,1.47
2022-12-28T23:32:21.484Z,1.33
2022-12-28T23:34:50.496Z,1.90
2022-12-28T23:37:18.797Z,1.10
2022-12-28T23:39:46.803Z,1.20
2022-12-28T23:42:14.855Z,1.30
2022-12-28T23:44:45.987Z,1.53
2022-12-28T23:47:14.102Z,1.30
2022-12-28T23:49:43.457Z,1.57
2022-12-28T23:52:11.695Z,1.30
2022-12-28T23:54:39.886Z,1.33
2022-12-28T23:57:08.041Z,1.00
2022-12-28T23:59:36.259Z,1.30
